Главная страница
METAR-TAF:

METAR-TAF

Аэропорты :

Сочи, Россия

широта: 43-26N, долгота: 039-54E, высота над уровнем моря: 16 м

Текущие метеонаблюдения

Эта сводка был подготовлена 33 минут назад, в 06:00 UTC
Ветер 4 Узел от северо-восточный, изменяющийся между северо-северо-восточный и восточный
Температура 30°C
Влажность 49%
Давление 1008 hPa
Видимость 10 км и более

METAR: URSS 210600Z 05002MPS 020V090 9999 NSC 30/18 Q1008 R02/090070 R06/090070 NOSIG RMK R06/11002MPS QFE755

Время: 09:33 (06:33 UTC)

Прогноз

Эта сводка был подготовлена 1 час и 36 минут назад, в 04:57 UTC
Прогноз действительный с 21-го 06 UTC до 22-го 06 UTC
Ветер 10 Узел от юго-восточный с порывами до 19 Узел
Видимость 10 км и более
Отдельные облака на высоте 10000 фута
изменения
С 21-го 17 UTC до 21-го 18 UTC
Ветер 12 Узел от северо-восточный

TAF: URSS 210457Z 2106/2206 14005G10MPS 9999 SCT100 BECMG 2117/2118 05006MPS

Метеонаблюдения и прогнозы для более 4000 аэропортов (сводки METAR и TAF).

Имеющиеся станции представлены на карте желтыми и красными точками.

Чтобы увидеть название станции, наведите на нее мышь.

Затем щелкните, чтобы увидеть метеонаблюдения и метеопрогнозы.

Управление картой: чтобы увеличить масштаб, щелкните зеленые кнопки с черным крестиком; чтобы уменьшить масштаб, щелкните зеленую кнопку с тире; для просмотра соседних карт щелкайте зеленые стрелки.


METAR-TAF: